SLCB/CBB METAR and TAF weather

Enter ICAO airport designator
Station Type Date Time Source
SLCB METAR 2020/04/02 00:00 UTC NOAA

SLCB 020000Z 08008KT 9999 FEW030 SCT200 23/09 Q1023


Station Type Date Time Source
SLCB Decoded METAR 2020/04/02 00:00 UTC NOAA

Cochabamba, Bolivia (SLCB) 17-25S 066-11W 2570M
Apr 01, 2020 - 08:00 PM EDT / 2020.04.02 0000 UTC
Wind: from the E (080 degrees) at 9 MPH (8 KT):0
Visibility: greater than 7 mile(s):0
Sky conditions: partly cloudy
Temperature: 73 F (23 C)
Dew Point: 48 F (9 C)
Relative Humidity: 40%
Pressure (altimeter): 30.21 in. Hg (1023 hPa)
ob: SLCB 020000Z 08008KT 9999 FEW030 SCT200 23/09 Q1023
cycle: 0

Station Type Date Time Source
SLCB TAF 2020/04/01 18:55 UTC NOAA

TAF SLCB 011650Z 0118/0218 32006KT 9999 FEW030 TX27/0119Z TN12/0211Z
TEMPO 0119/0122 FEW035CB
BECMG 0123/0202 00000KT
BECMG 0212/0214 23006KT

Example: see airport list